Monday, September 25, 2017, 5:53 AM EDT
Back to Local

KAOO, Altoona-blair County Airport

Location: Martinsburg, PA, United States Lat: 40.3
Local Time: 5:53 AM EDT ( 9:53 GMT) Lon: -78.317
Time Zone: US/Eastern Elev: 1502 ft

Show me the last for .
Show Coded

Time T Td Feel RH Dir Speed Gust Alt SLP Vis Weather Sky Remarks
2017-09-25 05:41 60 60 - 100 - Calm - 30.12 - 2 BR FEW003 None
2017-09-25 05:35 61 61 - 100 - Calm - 30.12 - 1 BR VV003 None
2017-09-25 05:26 61 61 - 100 - Calm - 30.12 - 0 FG VV003 None
2017-09-25 05:07 62 62 - 100 - Calm - 30.12 - 0 FG VV002 None
2017-09-25 04:53 60 60 - 100 - Calm - 30.12 30.09 1 BR CLR None
2017-09-25 04:44 60 60 - 100 - Calm - 30.12 - 1 BR FEW002 None
2017-09-25 04:41 61 61 - 100 - Calm - 30.12 - 3 BR FEW002 None
2017-09-25 04:32 63 63 - 100 - Calm - 30.11 - 2 BR FEW002 None
2017-09-25 04:28 63 63 - 100 - Calm - 30.11 - 1 BR VV002 None
2017-09-25 04:22 62 62 - 100 - Calm - 30.11 - 0 FG VV002 None
2017-09-25 04:01 61 61 - 100 - Calm - 30.11 - 0 FG VV003 None
2017-09-25 03:53 61 61 - 100 - Calm - 30.12 30.08 0 FG CLR None
2017-09-25 03:33 62 62 - 100 - Calm - 30.12 - 0 FG CLR None
2017-09-25 02:53 64 64 - 100 - Calm - 30.12 30.09 1 BR CLR None
2017-09-25 02:43 64 63 - 96 - Calm - 30.12 - 1 BR CLR None
2017-09-25 02:11 64 64 - 100 - Calm - 30.13 - 2 BR CLR None
2017-09-25 01:53 64 63 - 96 - Calm - 30.12 30.09 5 BR CLR 6-hr Min Temp (2am): 63.0°F
6-hr Max Temp (2am): 75.0°F
2017-09-25 00:53 65 64 - 96 - Calm - 30.13 30.09 9 CLR 24-hr Min Temp (1am): 57.9°F
24-hr Max Temp (1am): 88.0°F
2017-09-24 23:53 67 65 - 93 - Calm - 30.14 30.11 10 CLR None
2017-09-24 22:53 68 65 - 89 - Calm - 30.14 30.11 10 CLR None
2017-09-24 21:53 71 65 76 81 - Calm - 30.14 30.11 10 CLR None
2017-09-24 20:53 72 67 76 84 - Calm - 30.14 30.11 10 CLR None
2017-09-24 19:53 75 67 78 75 - Calm - 30.12 30.10 10 CLR 6-hr Min Temp (8pm): 75.0°F
6-hr Max Temp (8pm): 88.0°F
2017-09-24 18:53 80 66 83 62 - Calm - 30.12 30.09 10 CLR None
2017-09-24 17:53 86 65 89 49 40° 3 - 30.12 30.09 10 CLR None
2017-09-24 16:53 88 65 91 46 50° 5 - 30.12 30.08 10 CLR None
2017-09-24 15:53 88 65 91 46 80° 6 - 30.13 30.10 10 CLR None
2017-09-24 14:53 85 66 88 53 80° 7 - 30.15 30.12 10 SCT045 None
2017-09-24 13:53 84 66 87 54 20° 9 - 30.16 30.13 10 CLR 6-hr Min Temp (2pm): 62.1°F
6-hr Max Temp (2pm): 84.9°F
2017-09-24 12:53 83 66 86 56 40° 6 - 30.18 30.15 10 CLR None
2017-09-24 11:53 82 65 84 56 Variable 5 - 30.20 30.17 10 CLR None
2017-09-24 10:53 76 63 79 64 - Calm - 30.21 30.18 10 CLR None
2017-09-24 09:53 72 61 76 68 - Calm - 30.21 30.19 10 CLR None
2017-09-24 08:53 67 60 - 78 - Calm - 30.21 30.19 10 CLR None
2017-09-24 07:53 62 58 - 86 - Calm - 30.21 30.19 10 CLR 6-hr Min Temp (8am): 57.9°F
6-hr Max Temp (8am): 63.0°F
2017-09-24 06:53 58 56 - 93 - Calm - 30.20 30.18 10 CLR None

Support USWX by starting your Amazon purchase here.